KTVF

Thief River Falls Regional Airport

Thief River Falls, Minnesota, USA
KTVF 181720Z 1818/1918 18009KT P6SM SCT200 FM190600 VRB04KT P6SM BKN200
Issued Valid From Valid To
Jul-18 @ 17:20 UTC
(5 hours ago)
Jul-18 @ 18:00 UTC
(4 hours ago)
Jul-19 @ 18:00 UTC
(in 20 hours)
Jul-18 @ 18:00 to Jul-19 @ 06:00
KTVF 181720Z 1818/1918 18009KT P6SM SCT200
Wind Visibility Clouds
180° at 9 knots Greater than 6 miles
  • Scattered at 20,000' AGL
From Jul-19 @ 06:00 to Jul-19 @ 18:00
FM190600 VRB04KT P6SM BKN200
Wind Visibility Clouds
Variable at 4 knots Greater than 6 miles
  • Broken at 20,000' AGL
KTVF 181720Z 1818/1918 18009KT P6SM SCT200 FM190600 VRB04KT P6SM BKN200
Issued Jul-18 @ 17:20 UTC
(5 hours ago)
Valid From Jul-18 @ 18:00 UTC
(4 hours ago)
Valid To Jul-19 @ 18:00 UTC
(in 20 hours)
Jul-18 @ 18:00 - Jul-19 @ 06:00
Wind Visibility
180° at 9 knots Greater than 6 miles
Clouds
  • Scattered at 20,000' AGL
From Jul-19 @ 06:00 - Jul-19 @ 18:00
Wind Visibility
Variable at 4 knots Greater than 6 miles
Clouds
  • Broken at 20,000' AGL